Time;durP1;ratioP1;P1;durP2;ratioP2;P2;SDS_P1;SDS_P2;PMS_P1;PMS_P2;Temp;Humidity;BMP_temperature;BMP_pressure;BME280_temperature;BME280_humidity;BME280_pressure;Samples;Min_cycle;Max_cycle;Signal;HPM_P1;HPM_P2
2022/04/24 00:01:51;;;;;;;1.50;0.70;;;;;;;7.76;45.71;100648.72;5062887;28;20526;-70
2022/04/24 00:04:16;;;;;;;2.60;0.80;;;;;;;7.78;45.97;100654.75;5062612;28;20253;-70
2022/04/24 00:06:42;;;;;;;0.73;0.68;;;;;;;7.68;45.96;100640.91;5062837;28;20032;-70
2022/04/24 00:09:07;;;;;;;1.63;0.68;;;;;;;7.63;46.21;100648.63;5062570;28;20079;-70
2022/04/24 00:11:33;;;;;;;1.25;0.80;;;;;;;7.60;46.38;100652.91;5062686;28;20077;-70
2022/04/24 00:13:58;;;;;;;0.93;0.80;;;;;;;7.55;46.37;100650.28;5062984;28;20017;-69
2022/04/24 00:16:24;;;;;;;2.35;0.60;;;;;;;7.57;46.40;100654.59;5044783;28;20017;-70
2022/04/24 00:18:49;;;;;;;1.70;0.60;;;;;;;7.50;46.52;100650.25;5062740;28;20039;-70
2022/04/24 00:21:14;;;;;;;1.25;0.90;;;;;;;7.52;46.44;100650.25;5062703;28;20021;-70
2022/04/24 00:23:40;;;;;;;1.63;0.70;;;;;;;7.53;46.29;100658.00;5062437;28;20029;-71
2022/04/24 00:26:05;;;;;;;1.02;0.65;;;;;;;7.41;46.74;100648.44;5062588;28;20171;-70
2022/04/24 00:28:31;;;;;;;1.60;0.60;;;;;;;7.42;46.64;100654.47;5062756;28;20029;-71
2022/04/24 00:30:56;;;;;;;1.42;0.80;;;;;;;7.43;46.63;100651.03;5062814;28;20495;-71
2022/04/24 00:33:22;;;;;;;0.98;0.65;;;;;;;7.47;46.16;100667.44;5062550;28;20049;-71
2022/04/24 00:35:47;;;;;;;0.55;0.50;;;;;;;7.39;45.88;100649.28;5062737;28;20051;-71
2022/04/24 00:38:13;;;;;;;1.20;0.57;;;;;;;7.35;45.85;100643.22;5062659;28;20075;-70
2022/04/24 00:40:38;;;;;;;0.73;0.50;;;;;;;7.28;46.06;100652.66;5062813;28;20423;-71
2022/04/24 00:43:03;;;;;;;0.80;0.70;;;;;;;7.27;45.89;100657.75;5063017;28;20035;-70
2022/04/24 00:45:29;;;;;;;0.50;0.50;;;;;;;7.25;45.75;100646.56;5062463;28;20036;-70
2022/04/24 00:47:56;;;;;;;0.70;0.55;;;;;;;7.26;45.74;100645.72;5063074;28;20048;-70
2022/04/24 00:50:21;;;;;;;0.40;0.40;;;;;;;7.25;45.60;100642.25;5062703;28;20043;-71
2022/04/24 00:52:47;;;;;;;1.58;0.70;;;;;;;7.24;45.67;100640.53;5062712;28;20029;-69
2022/04/24 00:55:12;;;;;;;3.03;0.77;;;;;;;7.27;45.47;100624.19;5063060;28;20020;-70
2022/04/24 00:57:41;;;;;;;0.60;0.60;;;;;;;7.29;45.45;100630.25;5066244;28;20465;-71
2022/04/24 01:00:07;;;;;;;1.05;0.60;;;;;;;7.32;45.31;100638.03;5066231;28;20028;-70
2022/04/24 01:02:33;;;;;;;0.60;0.60;;;;;;;7.17;45.64;100636.19;5066296;28;20040;-69
2022/04/24 01:04:58;;;;;;;2.28;0.70;;;;;;;7.19;45.46;100632.75;5066054;28;20025;-69
2022/04/24 01:07:24;;;;;;;0.57;0.43;;;;;;;7.11;45.69;100628.38;5047734;28;20021;-70
2022/04/24 01:09:49;;;;;;;1.85;0.68;;;;;;;7.06;45.80;100647.25;5065846;28;20043;-69
2022/04/24 01:12:14;;;;;;;0.63;0.60;;;;;;;7.03;45.89;100642.06;5065731;28;20029;-71
2022/04/24 01:14:40;;;;;;;0.80;0.60;;;;;;;6.96;46.14;100624.78;5065752;28;20049;-70
2022/04/24 01:17:06;;;;;;;0.60;0.60;;;;;;;6.92;46.01;100631.63;5064353;28;20024;-72
2022/04/24 01:19:31;;;;;;;0.50;0.50;;;;;;;6.89;46.31;100629.03;5065686;28;20032;-71
2022/04/24 01:21:58;;;;;;;1.55;0.60;;;;;;;6.90;46.32;100617.84;5065763;28;20024;-71
2022/04/24 01:24:25;;;;;;;1.23;0.57;;;;;;;6.81;46.34;100615.16;5047426;28;20090;-73
2022/04/24 01:26:52;;;;;;;0.70;0.60;;;;;;;6.84;46.49;100625.53;5065780;28;20525;-72
2022/04/24 01:29:18;;;;;;;0.75;0.60;;;;;;;6.78;46.66;100626.34;5065709;28;20048;-72
2022/04/24 01:31:45;;;;;;;1.17;0.63;;;;;;;6.84;46.74;100630.69;5065481;28;20442;-72
2022/04/24 01:34:11;;;;;;;1.30;0.60;;;;;;;6.78;46.75;100631.50;5065322;28;20190;-72
2022/04/24 01:36:37;;;;;;;0.70;0.68;;;;;;;6.81;46.76;100630.66;5065449;28;20021;-72
2022/04/24 01:39:04;;;;;;;0.95;0.68;;;;;;;6.76;46.66;100627.13;5065210;28;20088;-71
2022/04/24 01:41:31;;;;;;;1.13;0.77;;;;;;;6.71;46.93;100628.84;5065234;28;20071;-72
2022/04/24 01:43:57;;;;;;;2.47;0.57;;;;;;;6.72;46.76;100609.91;5065537;28;20033;-71
2022/04/24 01:46:22;;;;;;;0.77;0.70;;;;;;;6.66;46.97;100611.56;5065605;28;20029;-72
2022/04/24 01:48:48;;;;;;;0.52;0.52;;;;;;;6.69;46.95;100627.06;5065379;28;20028;-72
2022/04/24 01:51:14;;;;;;;1.02;0.60;;;;;;;6.60;47.01;100611.50;5065114;28;20021;-72
2022/04/24 01:53:40;;;;;;;3.72;0.80;;;;;;;6.50;47.17;100610.53;5064912;28;20021;-72
2022/04/24 01:56:07;;;;;;;1.08;0.65;;;;;;;6.45;47.59;100628.53;5063751;28;20028;-72
2022/04/24 01:58:34;;;;;;;1.42;0.50;;;;;;;6.37;47.66;100617.28;5065063;28;20032;-73
2022/04/24 02:01:00;;;;;;;1.10;0.88;;;;;;;6.35;48.10;100620.66;5064960;28;20128;-71
2022/04/24 02:03:26;;;;;;;0.80;0.60;;;;;;;6.20;48.07;100605.03;5065191;28;20033;-71
2022/04/24 02:05:52;;;;;;;1.05;0.68;;;;;;;6.27;48.11;100607.69;5064364;28;20052;-71
2022/04/24 02:08:18;;;;;;;1.08;0.70;;;;;;;6.27;48.39;100618.00;5064585;28;20017;-71
2022/04/24 02:10:43;;;;;;;0.70;0.60;;;;;;;6.23;48.38;100614.50;5065051;28;20021;-72
2022/04/24 02:13:09;;;;;;;0.90;0.60;;;;;;;6.13;48.43;100602.34;5064878;28;20029;-71
2022/04/24 02:15:35;;;;;;;1.10;0.70;;;;;;;6.18;48.43;100618.75;5064876;28;20056;-72
2022/04/24 02:18:01;;;;;;;0.82;0.60;;;;;;;6.14;48.66;100612.69;5046806;28;20029;-71
2022/04/24 02:20:28;;;;;;;1.70;0.80;;;;;;;6.14;48.94;100616.94;5064644;28;20029;-71
2022/04/24 02:22:55;;;;;;;1.48;0.73;;;;;;;6.04;48.95;100595.31;5064976;28;20017;-72
2022/04/24 02:25:21;;;;;;;0.57;0.57;;;;;;;6.06;49.04;100606.53;5063000;28;20072;-71
2022/04/24 02:27:47;;;;;;;1.67;0.70;;;;;;;6.12;49.01;100611.78;5046363;28;20374;-72
2022/04/24 02:30:13;;;;;;;0.65;0.63;;;;;;;6.10;49.06;100616.06;5063307;28;20055;-72
2022/04/24 02:32:38;;;;;;;0.70;0.55;;;;;;;6.04;49.24;100608.19;5064124;28;20059;-72
2022/04/24 02:35:04;;;;;;;0.90;0.60;;;;;;;6.10;49.21;100604.88;5064370;28;20390;-72
2022/04/24 02:37:32;;;;;;;0.88;0.60;;;;;;;6.06;49.38;100601.38;5064573;28;20100;-71
2022/04/24 02:39:57;;;;;;;1.13;0.70;;;;;;;6.05;49.45;100621.13;5064209;28;20021;-72
2022/04/24 02:42:23;;;;;;;1.42;0.73;;;;;;;5.99;49.56;100602.97;5062824;28;20093;-72
2022/04/24 02:44:48;;;;;;;1.88;0.60;;;;;;;5.98;49.58;100605.53;5064070;28;20108;-72
2022/04/24 02:47:13;;;;;;;0.63;0.55;;;;;;;5.98;49.77;100609.00;5064268;28;20033;-72
2022/04/24 02:49:39;;;;;;;0.60;0.50;;;;;;;5.99;49.77;100597.81;5064244;28;20127;-71
2022/04/24 02:52:04;;;;;;;1.13;0.60;;;;;;;5.95;49.80;100596.94;5063816;28;20087;-72
2022/04/24 02:54:30;;;;;;;1.05;0.77;;;;;;;5.89;49.93;100601.13;5063840;28;20088;-72
2022/04/24 02:56:55;;;;;;;1.02;0.60;;;;;;;5.88;50.00;100614.88;5064219;28;20033;-71
2022/04/24 02:59:21;;;;;;;0.80;0.60;;;;;;;5.88;50.10;100610.56;5063960;28;20028;-70
2022/04/24 03:01:46;;;;;;;1.73;0.55;;;;;;;5.88;50.01;100602.00;5062315;28;20063;-71
2022/04/24 03:04:12;;;;;;;1.35;1.25;;;;;;;5.78;50.00;100593.25;5063799;28;20100;-72
2022/04/24 03:06:38;;;;;;;1.33;0.63;;;;;;;5.83;50.28;100594.19;5063670;28;20029;-71
2022/04/24 03:09:04;;;;;;;1.45;0.80;;;;;;;5.87;50.42;100597.66;5063534;28;20032;-72
2022/04/24 03:11:30;;;;;;;1.77;0.70;;;;;;;5.75;50.98;100603.50;5045688;28;20388;-72
2022/04/24 03:13:55;;;;;;;0.88;0.60;;;;;;;5.68;51.24;100599.97;5063764;28;20049;-72
2022/04/24 03:16:21;;;;;;;1.25;0.68;;;;;;;5.63;51.32;100609.34;5062382;28;20025;-72
2022/04/24 03:18:46;;;;;;;1.48;0.68;;;;;;;5.60;51.33;100599.00;5044922;28;20021;-73
2022/04/24 03:21:11;;;;;;;1.40;0.77;;;;;;;5.59;51.57;100598.16;5063510;28;20032;-73
2022/04/24 03:23:37;;;;;;;1.85;0.80;;;;;;;5.55;51.65;100598.91;5045409;28;20024;-75
2022/04/24 03:26:03;;;;;;;0.93;0.50;;;;;;;5.46;51.92;100592.78;5063253;28;20427;-74
2022/04/24 03:28:28;;;;;;;0.70;0.70;;;;;;;5.49;52.17;100591.09;5063576;28;20029;-74
2022/04/24 03:30:54;;;;;;;0.60;0.60;;;;;;;5.39;52.10;100584.94;5063014;28;20016;-73
2022/04/24 03:33:19;;;;;;;1.13;0.82;;;;;;;5.46;52.05;100602.22;5063256;28;20075;-72
2022/04/24 03:35:44;;;;;;;1.20;0.68;;;;;;;5.42;52.32;100595.28;5045504;28;20052;-72
2022/04/24 03:38:10;;;;;;;1.58;0.80;;;;;;;5.49;52.34;100593.69;5063005;28;20119;-71
2022/04/24 03:40:35;;;;;;;1.38;0.60;;;;;;;5.44;52.26;100586.75;5063270;28;20143;-72
2022/04/24 03:43:00;;;;;;;2.17;0.82;;;;;;;5.45;52.43;100580.75;5063025;28;20106;-72
2022/04/24 03:45:26;;;;;;;2.38;0.70;;;;;;;5.45;52.68;100593.63;5063086;28;20021;-74
2022/04/24 03:47:52;;;;;;;1.23;0.60;;;;;;;5.41;52.74;100584.13;5063245;28;20024;-72
2022/04/24 03:50:19;;;;;;;1.25;0.85;;;;;;;5.20;52.80;100554.63;5063331;28;20051;-73
2022/04/24 03:52:44;;;;;;;1.52;0.60;;;;;;;5.29;52.74;100565.88;5063208;28;20080;-73
2022/04/24 03:55:10;;;;;;;1.38;0.80;;;;;;;5.33;53.15;100580.56;5063025;28;20108;-72
2022/04/24 03:57:35;;;;;;;1.42;0.88;;;;;;;5.38;53.10;100591.81;5062979;28;20033;-72
2022/04/24 04:00:01;;;;;;;1.17;0.70;;;;;;;5.15;53.20;100547.66;5062827;28;20043;-72
2022/04/24 04:02:26;;;;;;;1.40;0.65;;;;;;;5.38;53.20;100578.06;5045130;28;20071;-73
2022/04/24 04:04:52;;;;;;;0.50;0.50;;;;;;;5.38;53.43;100586.66;5062905;28;20080;-73
2022/04/24 04:07:17;;;;;;;1.80;0.75;;;;;;;5.27;53.41;100573.59;5044795;28;20032;-75
2022/04/24 04:09:43;;;;;;;1.60;0.90;;;;;;;5.29;53.55;100565.88;5044763;28;20029;-72
2022/04/24 04:12:10;;;;;;;1.52;0.73;;;;;;;5.31;53.97;100582.25;5062788;28;20021;-71
2022/04/24 04:14:36;;;;;;;1.23;0.70;;;;;;;5.30;53.84;100580.53;5044850;28;20036;-71
2022/04/24 04:17:01;;;;;;;1.20;0.80;;;;;;;5.27;54.11;100580.47;5062787;28;20400;-70
2022/04/24 04:19:27;;;;;;;1.15;0.85;;;;;;;5.09;54.37;100551.00;5062859;28;20074;-72
2022/04/24 04:21:52;;;;;;;1.55;0.80;;;;;;;5.25;54.21;100579.56;5044970;28;20032;-71
2022/04/24 04:24:17;;;;;;;1.15;0.60;;;;;;;5.17;54.75;100589.75;5044515;28;20036;-71
2022/04/24 04:26:44;;;;;;;0.82;0.60;;;;;;;5.14;54.55;100585.41;5062952;28;20036;-71
2022/04/24 04:29:09;;;;;;;0.80;0.65;;;;;;;5.00;54.72;100566.31;5063606;28;20032;-70
2022/04/24 04:31:35;;;;;;;1.58;0.70;;;;;;;5.15;54.87;100581.13;5066702;28;20028;-70
2022/04/24 04:34:00;;;;;;;1.13;0.80;;;;;;;5.14;54.96;100585.41;5066325;28;20051;-70
2022/04/24 04:36:26;;;;;;;2.17;0.82;;;;;;;4.94;54.88;100557.63;5066679;28;20433;-71
2022/04/24 04:38:51;;;;;;;0.95;0.70;;;;;;;5.18;54.94;100589.75;5048205;28;20021;-71
2022/04/24 04:41:17;;;;;;;0.77;0.60;;;;;;;5.15;54.97;100584.56;5066474;28;20031;-71
2022/04/24 04:43:42;;;;;;;1.10;0.70;;;;;;;5.19;55.04;100596.63;5066635;28;20020;-71
2022/04/24 04:46:07;;;;;;;1.08;0.80;;;;;;;5.14;55.36;100595.72;5066261;28;20020;-71
2022/04/24 04:48:34;;;;;;;1.45;0.80;;;;;;;5.14;55.30;100589.69;5066501;28;20021;-71
2022/04/24 04:50:59;;;;;;;1.85;0.75;;;;;;;5.10;55.42;100591.34;5064921;28;20025;-71
2022/04/24 04:53:25;;;;;;;1.20;0.80;;;;;;;5.17;55.47;100595.75;5066037;28;20049;-71
2022/04/24 04:55:50;;;;;;;1.92;0.90;;;;;;;5.26;55.44;100600.19;5066445;28;20021;-71
2022/04/24 04:58:16;;;;;;;1.67;0.70;;;;;;;5.35;55.18;100601.19;5048312;28;20025;-71
2022/04/24 05:00:41;;;;;;;0.80;0.68;;;;;;;5.31;55.09;100577.97;5066268;28;20047;-70
2022/04/24 05:03:07;;;;;;;1.15;0.60;;;;;;;5.29;55.35;100592.50;5066160;28;20021;-70
2022/04/24 05:05:32;;;;;;;1.65;0.77;;;;;;;5.21;55.47;100592.38;5047975;28;20584;-72
2022/04/24 05:07:58;;;;;;;1.38;0.80;;;;;;;5.28;55.57;100595.94;5065954;28;20024;-70
2022/04/24 05:10:24;;;;;;;1.33;0.80;;;;;;;5.07;55.60;100560.41;5065829;28;20032;-71
2022/04/24 05:12:50;;;;;;;1.30;0.88;;;;;;;5.32;55.72;100596.84;5064340;28;20020;-71
2022/04/24 05:15:16;;;;;;;0.63;0.63;;;;;;;5.35;55.62;100596.03;5066282;28;20028;-71
2022/04/24 05:17:42;;;;;;;1.70;0.70;;;;;;;5.33;55.74;100585.72;5047894;28;20025;-70
2022/04/24 05:20:13;;;;;;;1.00;0.80;;;;;;;5.32;55.72;100592.56;5064581;28;20086;-71
2022/04/24 05:22:40;;;;;;;1.08;0.70;;;;;;;5.36;55.65;100596.06;5047702;28;20088;-70
2022/04/24 05:25:07;;;;;;;3.92;0.93;;;;;;;5.37;55.76;100591.78;5065620;28;20021;-72
2022/04/24 05:27:33;;;;;;;1.40;0.70;;;;;;;5.43;55.67;100597.03;5066047;28;20104;-71
2022/04/24 05:29:58;;;;;;;0.90;0.60;;;;;;;5.55;55.60;100597.22;5065771;28;20087;-71
2022/04/24 05:32:23;;;;;;;1.60;0.88;;;;;;;5.59;55.60;100572.38;5065442;28;20124;-71
2022/04/24 05:34:49;;;;;;;1.73;0.80;;;;;;;5.70;55.43;100598.31;5065572;28;20096;-71
2022/04/24 05:37:14;;;;;;;1.27;0.68;;;;;;;5.86;55.20;100606.25;5065590;28;20549;-71
2022/04/24 05:39:40;;;;;;;1.02;0.80;;;;;;;5.95;54.47;100589.22;5065446;28;20029;-69
2022/04/24 05:42:05;;;;;;;2.33;0.70;;;;;;;5.90;54.99;100588.28;5064704;28;20021;-71
2022/04/24 05:44:31;;;;;;;0.85;0.60;;;;;;;6.16;54.64;100602.38;5065378;28;20029;-70
2022/04/24 05:46:56;;;;;;;1.08;0.70;;;;;;;6.28;54.07;100592.22;5065337;28;20064;-71
2022/04/24 05:49:21;;;;;;;2.85;0.90;;;;;;;6.29;53.52;100575.88;5065305;28;20048;-72
2022/04/24 05:51:47;;;;;;;1.83;0.80;;;;;;;6.59;54.13;100596.00;5065274;28;20059;-72
2022/04/24 05:54:12;;;;;;;3.08;1.23;;;;;;;6.88;53.88;100605.78;5065183;28;20055;-72
2022/04/24 05:56:41;;;;;;;1.00;0.70;;;;;;;7.03;53.56;100599.88;5065067;28;20041;-72
2022/04/24 05:59:10;;;;;;;2.15;0.80;;;;;;;7.39;52.61;100618.28;5065152;28;20029;-71
2022/04/24 06:01:36;;;;;;;1.10;0.80;;;;;;;7.57;51.78;100602.06;5047083;28;20025;-71
2022/04/24 06:04:01;;;;;;;3.20;0.98;;;;;;;7.84;51.79;100595.34;5046885;28;20031;-71
2022/04/24 06:06:29;;;;;;;1.38;0.77;;;;;;;8.34;51.46;100600.75;5064798;28;20040;-70
2022/04/24 06:08:54;;;;;;;3.22;0.88;;;;;;;8.46;50.11;100599.06;5064898;28;20017;-73
2022/04/24 06:11:19;;;;;;;1.30;0.60;;;;;;;8.43;49.18;100590.44;5064813;28;20089;-71
2022/04/24 06:13:45;;;;;;;1.13;0.80;;;;;;;8.25;49.72;100598.13;5046769;28;20020;-70
2022/04/24 06:16:11;;;;;;;2.50;0.95;;;;;;;8.36;49.64;100604.22;5047091;28;20096;-69
2022/04/24 06:18:36;;;;;;;2.55;0.80;;;;;;;8.45;49.99;100603.38;5064917;28;20082;-73
2022/04/24 06:21:01;;;;;;;1.05;0.73;;;;;;;8.64;49.50;100577.59;5064518;28;20032;-71
2022/04/24 06:23:28;;;;;;;1.40;0.90;;;;;;;9.02;48.84;100594.06;5064516;28;20035;-71
2022/04/24 06:25:55;;;;;;;2.50;1.20;;;;;;;9.46;48.12;100604.41;5046918;28;20032;-73
2022/04/24 06:28:21;;;;;;;1.50;0.90;;;;;;;9.83;47.26;100601.78;5064788;28;20017;-71
2022/04/24 06:30:47;;;;;;;1.42;0.95;;;;;;;9.67;46.38;100594.03;5064449;28;20025;-70
2022/04/24 06:33:13;;;;;;;1.42;1.00;;;;;;;9.79;47.39;100597.47;5045822;28;20033;-70
2022/04/24 06:35:39;;;;;;;1.75;1.00;;;;;;;10.10;45.93;100586.13;5064465;28;20021;-69
2022/04/24 06:38:05;;;;;;;3.00;1.02;;;;;;;10.12;46.07;100580.09;5064239;28;20472;-71
2022/04/24 06:40:32;;;;;;;1.33;0.95;;;;;;;10.51;45.57;100590.31;5064065;28;20032;-70
2022/04/24 06:43:00;;;;;;;3.35;1.33;;;;;;;10.78;44.66;100587.59;5064080;28;20017;-70
2022/04/24 06:45:31;;;;;;;1.92;1.30;;;;;;;10.95;44.92;100581.41;5045951;28;20071;-68
2022/04/24 06:47:59;;;;;;;3.95;1.17;;;;;;;10.87;43.88;100589.25;5063989;28;20024;-68
2022/04/24 06:50:26;;;;;;;1.23;0.90;;;;;;;10.27;44.49;100575.72;5062874;28;20028;-68
2022/04/24 06:52:58;;;;;;;2.75;1.45;;;;;;;9.73;45.56;100597.50;5044954;28;20178;-69
2022/04/24 06:55:24;;;;;;;6.28;1.55;;;;;;;9.41;46.30;100586.28;5063735;28;20025;-71
2022/04/24 06:57:51;;;;;;;2.42;1.48;;;;;;;9.13;47.74;100587.16;5063972;28;20032;-69
2022/04/24 07:00:17;;;;;;;3.42;1.45;;;;;;;8.92;47.50;100568.16;5045806;28;20048;-70
2022/04/24 07:02:42;;;;;;;1.83;1.40;;;;;;;8.65;48.54;100569.84;5063479;28;20049;-70
2022/04/24 07:05:08;;;;;;;2.13;1.30;;;;;;;8.72;48.66;100587.97;5063499;28;20480;-70
2022/04/24 07:07:34;;;;;;;3.92;2.00;;;;;;;8.77;48.90;100579.34;5045363;28;20241;-69
2022/04/24 07:09:59;;;;;;;3.00;1.30;;;;;;;8.74;49.03;100579.34;5063644;28;20024;-70
2022/04/24 07:12:25;;;;;;;1.33;1.00;;;;;;;8.82;49.27;100586.28;5062085;28;20017;-70
2022/04/24 07:14:50;;;;;;;2.38;1.02;;;;;;;8.88;48.78;100602.66;5062525;28;20487;-70
2022/04/24 07:17:17;;;;;;;3.25;0.90;;;;;;;8.97;48.62;100590.59;5063489;28;20047;-70
2022/04/24 07:19:43;;;;;;;1.58;1.17;;;;;;;9.05;48.40;100594.06;5045866;28;20116;-70
2022/04/24 07:22:08;;;;;;;1.65;0.98;;;;;;;9.06;48.42;100580.22;5063452;28;20138;-70
2022/04/24 07:24:34;;;;;;;3.95;1.20;;;;;;;9.00;48.22;100611.31;5063194;28;20496;-68
2022/04/24 07:26:59;;;;;;;2.47;1.25;;;;;;;8.96;48.62;100591.47;5063421;28;20027;-71
2022/04/24 07:29:25;;;;;;;2.17;1.42;;;;;;;8.77;49.10;100584.50;5063325;28;20048;-70
2022/04/24 07:31:50;;;;;;;4.05;2.13;;;;;;;8.72;49.20;100582.78;5063048;28;20147;-69
2022/04/24 07:34:16;;;;;;;1.33;0.98;;;;;;;8.58;49.13;100599.13;5045029;28;20051;-69
2022/04/24 07:36:41;;;;;;;2.90;1.50;;;;;;;8.38;49.72;100591.28;5063046;28;20027;-69
2022/04/24 07:39:06;;;;;;;1.95;1.40;;;;;;;8.07;50.46;100620.44;5063096;28;20017;-70
2022/04/24 07:41:32;;;;;;;2.45;1.52;;;;;;;7.79;51.19;100586.69;5063147;28;20115;-69
2022/04/24 07:43:57;;;;;;;3.08;1.10;;;;;;;7.78;51.41;100580.66;5063002;28;20021;-69
2022/04/24 07:46:23;;;;;;;2.53;1.50;;;;;;;7.40;52.40;100584.72;5062974;28;20100;-70
2022/04/24 07:48:49;;;;;;;2.85;1.80;;;;;;;7.40;53.11;100602.78;5045125;28;20523;-71
2022/04/24 07:51:14;;;;;;;0.70;0.70;;;;;;;7.44;53.06;100581.28;5044988;28;20030;-70
2022/04/24 07:53:42;;;;;;;2.10;1.67;;;;;;;7.51;53.04;100596.84;5062798;28;20069;-70
2022/04/24 07:56:08;;;;;;;1.83;1.23;;;;;;;7.66;52.79;100589.22;5062725;28;20021;-71
2022/04/24 07:58:33;;;;;;;2.33;1.33;;;;;;;7.57;53.12;100583.97;5063449;28;20029;-71
2022/04/24 08:00:59;;;;;;;2.13;1.40;;;;;;;7.55;53.33;100577.94;5045963;28;20374;-71
2022/04/24 08:03:24;;;;;;;2.35;1.38;;;;;;;8.08;52.95;100587.72;5063153;28;20025;-70
2022/04/24 08:05:51;;;;;;;2.72;1.20;;;;;;;8.54;51.92;100571.50;5048335;28;20055;-70
2022/04/24 08:08:19;;;;;;;2.15;1.73;;;;;;;9.03;50.86;100585.41;5067525;28;20669;-69
2022/04/24 08:10:50;;;;;;;2.15;1.65;;;;;;;9.53;50.00;100581.09;5067280;28;20055;-70
2022/04/24 08:13:16;;;;;;;1.92;1.20;;;;;;;10.18;48.61;100571.41;5066955;28;20029;-71
2022/04/24 08:15:42;;;;;;;2.72;1.70;;;;;;;10.82;48.38;100565.03;5067350;28;20024;-70
2022/04/24 08:18:09;;;;;;;2.63;1.30;;;;;;;11.62;45.84;100573.91;5067156;28;20279;-71
2022/04/24 08:20:35;;;;;;;2.38;1.30;;;;;;;11.72;44.50;100576.41;5066966;28;20017;-69
2022/04/24 08:23:04;;;;;;;3.75;1.48;;;;;;;11.90;43.56;100575.34;5066858;28;20056;-70
2022/04/24 08:25:35;;;;;;;1.75;1.10;;;;;;;11.87;44.13;100584.03;5066686;28;20017;-71
2022/04/24 08:28:06;;;;;;;2.45;1.20;;;;;;;12.13;43.60;100564.69;5065542;28;20017;-70
2022/04/24 08:30:33;;;;;;;2.78;1.60;;;;;;;12.67;42.98;100584.84;5066896;28;20020;-70
2022/04/24 08:32:58;;;;;;;3.58;1.23;;;;;;;12.89;41.95;100569.75;5066198;28;20057;-70
2022/04/24 08:35:24;;;;;;;2.58;1.17;;;;;;;13.12;40.67;100592.84;5066921;28;20020;-71
2022/04/24 08:37:49;;;;;;;1.83;1.40;;;;;;;12.82;40.53;100582.00;5066693;28;20393;-71
2022/04/24 08:40:17;;;;;;;3.28;1.45;;;;;;;12.45;41.04;100552.13;5065125;28;20025;-70
2022/04/24 08:42:42;;;;;;;3.53;1.48;;;;;;;12.59;41.41;100570.16;5065009;28;20032;-71
2022/04/24 08:45:13;;;;;;;3.45;1.48;;;;;;;13.03;41.35;100574.75;5066480;28;20021;-70
2022/04/24 08:47:39;;;;;;;2.45;1.20;;;;;;;13.36;40.07;100577.66;5066612;28;20023;-70
2022/04/24 08:50:05;;;;;;;4.47;1.42;;;;;;;13.51;40.91;100547.03;5048660;28;20044;-70
2022/04/24 08:52:32;;;;;;;3.58;1.40;;;;;;;14.28;39.10;100545.50;5066392;28;20107;-71
2022/04/24 08:54:59;;;;;;;1.33;1.17;;;;;;;14.46;37.82;100565.13;5066338;28;20021;-70
2022/04/24 08:57:30;;;;;;;2.08;1.45;;;;;;;14.11;38.97;100558.03;5048751;28;20025;-69
2022/04/24 09:00:09;;;;;;;1.73;1.35;;;;;;;14.84;38.26;100563.44;5066563;28;20085;-70
2022/04/24 09:02:35;;;;;;;2.03;1.30;;;;;;;14.81;37.38;100557.44;5065995;28;20036;-72
2022/04/24 09:05:03;;;;;;;2.15;1.38;;;;;;;15.05;37.94;100550.72;5064790;28;20031;-70
2022/04/24 09:07:32;;;;;;;2.17;1.50;;;;;;;15.61;36.65;100544.06;5066275;28;20345;-70
2022/04/24 09:10:07;;;;;;;2.60;1.50;;;;;;;15.23;36.03;100548.53;5065597;28;20024;-69
2022/04/24 09:12:33;;;;;;;3.28;1.55;;;;;;;14.75;36.91;100530.50;5065903;28;20027;-71
2022/04/24 09:14:59;;;;;;;2.28;1.38;;;;;;;14.81;36.61;100554.81;5066066;28;20025;-74
2022/04/24 09:17:30;;;;;;;3.85;1.70;;;;;;;14.61;37.71;100528.22;5064407;28;20028;-72
2022/04/24 09:19:57;;;;;;;2.80;1.33;;;;;;;15.13;36.38;100562.78;5064091;28;20029;-74
2022/04/24 09:22:23;;;;;;;2.28;1.45;;;;;;;14.75;36.76;100538.34;5065265;28;20033;-74
2022/04/24 09:24:56;;;;;;;3.72;1.75;;;;;;;14.27;37.44;100547.25;5065199;28;20155;-71
2022/04/24 09:27:27;;;;;;;2.47;1.52;;;;;;;14.46;37.76;100549.44;5065135;28;20036;-71
2022/04/24 09:29:59;;;;;;;3.08;1.50;;;;;;;14.74;37.13;100554.06;5065117;28;20021;-77
2022/04/24 09:32:26;;;;;;;3.83;1.30;;;;;;;14.49;37.10;100525.88;5046593;28;20393;-75
2022/04/24 09:34:52;;;;;;;3.70;1.58;;;;;;;14.44;37.76;100543.44;5064505;28;20071;-74
2022/04/24 09:37:21;;;;;;;3.17;1.67;;;;;;;14.54;37.48;100542.31;5064287;28;20029;-75
2022/04/24 09:39:48;;;;;;;2.15;1.20;;;;;;;14.48;37.76;100552.91;5064418;28;20036;-75
2022/04/24 09:42:15;;;;;;;3.30;1.50;;;;;;;14.31;37.96;100512.38;5046379;28;20039;-74
2022/04/24 09:44:47;;;;;;;2.72;1.55;;;;;;;14.38;37.84;100540.06;5064654;28;20025;-74
2022/04/24 09:47:13;;;;;;;;;;;;;;;14.55;37.76;100546.66;5065427;28;20025;-75
2022/04/24 09:49:46;;;;;;;3.50;1.70;;;;;;;14.49;37.40;100554.59;5065019;28;19962;-74
2022/04/24 09:52:12;;;;;;;2.75;2.08;;;;;;;14.45;37.48;100560.81;5065021;28;20035;-77
2022/04/24 09:54:40;;;;;;;1.35;1.20;;;;;;;14.20;38.02;100556.13;5064950;28;20516;-75
2022/04/24 09:57:08;;;;;;;3.47;1.63;;;;;;;14.36;38.38;100535.75;5064830;28;20028;-74
2022/04/24 09:59:35;;;;;;;2.05;1.50;;;;;;;14.56;37.73;100532.69;5064793;28;20047;-74
2022/04/24 10:02:02;;;;;;;3.38;1.73;;;;;;;14.81;38.05;100539.97;5064386;28;20048;-73
2022/04/24 10:04:28;;;;;;;5.15;1.90;;;;;;;15.41;36.82;100531.53;5064560;28;20081;-74
2022/04/24 10:06:54;;;;;;;3.03;1.33;;;;;;;15.58;36.07;100523.22;5064368;28;20028;-74
2022/04/24 10:09:21;;;;;;;2.10;1.60;;;;;;;15.43;35.87;100544.56;5064398;28;20127;-74
2022/04/24 10:11:47;;;;;;;3.13;1.70;;;;;;;15.21;35.88;100534.66;5064627;28;20025;-75
2022/04/24 10:14:18;;;;;;;2.00;1.70;;;;;;;15.07;36.10;100542.84;5064862;28;20024;-76
2022/04/24 10:16:59;;;;;;;3.42;1.92;;;;;;;14.89;36.83;100544.19;5064311;28;20039;-73
2022/04/24 10:19:54;;;;;;;3.38;1.40;;;;;;;15.04;36.89;100538.56;5064734;28;20397;-75
2022/04/24 10:22:36;;;;;;;2.33;1.50;;;;;;;15.05;36.77;100542.03;5064610;28;20021;-77
2022/04/24 10:25:03;;;;;;;1.95;1.55;;;;;;;15.07;36.06;100543.72;5063822;28;20427;-74
2022/04/24 10:27:37;;;;;;;1.63;1.50;;;;;;;14.81;36.98;100544.38;5063969;28;20096;-76
2022/04/24 10:30:05;;;;;;;3.35;2.17;;;;;;;14.79;36.78;100527.81;5063983;28;20021;-74
2022/04/24 10:32:31;;;;;;;3.95;1.95;;;;;;;15.10;35.77;100534.91;5063856;28;20021;-74
2022/04/24 10:34:57;;;;;;;1.92;1.42;;;;;;;14.85;37.17;100541.63;5062653;28;20021;-72
2022/04/24 10:37:31;;;;;;;2.15;1.65;;;;;;;15.15;36.86;100521.72;5063977;28;20029;-73
2022/04/24 10:39:58;;;;;;;1.95;1.55;;;;;;;15.57;35.72;100529.34;5063774;28;20021;-72
2022/04/24 10:42:31;;;;;;;2.50;1.67;;;;;;;15.63;35.05;100522.22;5063728;28;20024;-72
2022/04/24 10:45:05;;;;;;;6.40;2.00;;;;;;;15.43;35.12;100518.41;5063597;28;20075;-73
2022/04/24 10:47:45;;;;;;;2.35;1.40;;;;;;;15.30;35.16;100523.97;5063587;28;20021;-72
2022/04/24 10:50:11;;;;;;;2.67;1.60;;;;;;;15.16;35.84;100513.00;5063599;28;20021;-72
2022/04/24 10:52:43;;;;;;;1.65;1.23;;;;;;;15.27;35.14;100510.94;5045538;28;20115;-73
2022/04/24 10:55:14;;;;;;;2.53;1.60;;;;;;;15.19;35.00;100519.00;5063299;28;20070;-73
2022/04/24 10:57:41;;;;;;;4.63;2.05;;;;;;;15.21;34.89;100501.50;5063377;28;20368;-73
2022/04/24 11:00:19;;;;;;;4.22;1.30;;;;;;;15.24;33.88;100517.13;5063532;28;20215;-75
2022/04/24 11:02:45;;;;;;;2.63;1.52;;;;;;;15.16;33.38;100515.63;5063275;28;20086;-73
2022/04/24 11:05:10;;;;;;;1.77;1.30;;;;;;;15.23;32.43;100477.94;5063477;28;20040;-72
2022/04/24 11:07:37;;;;;;;4.35;1.40;;;;;;;15.58;31.82;100510.13;5063429;28;20029;-73
2022/04/24 11:10:10;;;;;;;1.98;1.40;;;;;;;15.94;32.44;100496.00;5062209;28;20032;-72
2022/04/24 11:12:36;;;;;;;2.45;1.50;;;;;;;16.42;31.93;100503.38;5063860;28;20028;-72
2022/04/24 11:15:07;;;;;;;3.00;1.70;;;;;;;16.26;32.46;100503.88;5064433;28;20013;-73
2022/04/24 11:17:33;;;;;;;3.50;1.60;;;;;;;16.51;32.40;100503.09;5063840;28;20016;-73
2022/04/24 11:20:03;;;;;;;1.67;1.48;;;;;;;16.77;31.63;100525.00;5063728;28;20028;-72
2022/04/24 11:22:30;;;;;;;2.75;1.50;;;;;;;16.44;31.06;100520.75;5063551;28;20020;-73
2022/04/24 11:24:58;;;;;;;1.98;1.20;;;;;;;15.33;32.61;100518.66;5063176;28;20032;-73
2022/04/24 11:27:26;;;;;;;4.55;1.70;;;;;;;14.22;34.97;100499.50;5063338;28;20047;-74
2022/04/24 11:29:51;;;;;;;2.88;1.83;;;;;;;13.50;36.41;100496.59;5063323;28;20024;-72